Time;durP1;ratioP1;P1;durP2;ratioP2;P2;SDS_P1;SDS_P2;PMS_P1;PMS_P2;Temp;Humidity;BMP_temperature;BMP_pressure;BME280_temperature;BME280_humidity;BME280_pressure;Samples;Min_cycle;Max_cycle;Signal;HPM_P1;HPM_P2
2024/02/26 00:00:41;;;;;;;5.40;4.03;;;5.10;1.00;;;;;;5054785;28;20746;-65
2024/02/26 00:03:09;;;;;;;4.90;3.57;;;5.10;99.90;;;;;;5054874;28;20462;-65
2024/02/26 00:05:38;;;;;;;4.50;3.43;;;5.10;99.90;;;;;;5054977;28;20849;-65
2024/02/26 00:08:06;;;;;;;6.33;3.63;;;5.10;99.90;;;;;;5054789;28;20463;-65
2024/02/26 00:10:33;;;;;;;4.27;3.57;;;5.10;1.00;;;;;;5055295;28;20678;-65
2024/02/26 00:13:02;;;;;;;4.50;3.73;;;5.10;1.00;;;;;;5054556;28;20439;-65
2024/02/26 00:15:29;;;;;;;6.03;3.77;;;5.10;1.00;;;;;;5055716;28;20997;-65
2024/02/26 00:17:57;;;;;;;4.20;3.73;;;5.10;99.90;;;;;;5056399;28;20887;-65
2024/02/26 00:20:24;;;;;;;4.03;3.27;;;5.10;99.90;;;;;;5056757;28;20462;-65
2024/02/26 00:22:51;;;;;;;4.60;3.30;;;5.10;99.90;;;;;;5056098;28;20749;-65
2024/02/26 00:25:19;;;;;;;4.33;3.20;;;5.10;1.00;;;;;;5055626;28;20462;-65
2024/02/26 00:27:46;;;;;;;4.83;3.40;;;5.10;1.00;;;;;;5056750;28;20522;-65
2024/02/26 00:30:15;;;;;;;4.90;3.50;;;5.10;1.00;;;;;;5056130;28;20462;-65
2024/02/26 00:32:43;;;;;;;4.40;3.50;;;5.10;1.00;;;;;;5056209;28;20458;-65
2024/02/26 00:35:10;;;;;;;3.57;3.07;;;5.10;1.00;;;;;;5055977;28;20490;-66
2024/02/26 00:37:38;;;;;;;5.10;3.27;;;5.10;99.90;;;;;;5056154;28;20557;-65
2024/02/26 00:40:06;;;;;;;4.10;3.23;;;5.10;1.00;;;;;;5055670;28;20470;-65
2024/02/26 00:42:34;;;;;;;4.60;3.27;;;5.10;99.90;;;;;;5056003;28;20463;-65
2024/02/26 00:45:02;;;;;;;5.30;3.80;;;5.10;99.90;;;;;;5056346;28;20463;-66
2024/02/26 00:47:30;;;;;;;4.57;3.73;;;5.10;99.90;;;;;;5055574;28;20479;-65
2024/02/26 00:49:58;;;;;;;3.93;3.27;;;5.00;99.90;;;;;;5055877;28;20461;-65
2024/02/26 00:52:25;;;;;;;5.17;3.87;;;5.00;99.90;;;;;;5056021;28;20459;-65
2024/02/26 00:54:52;;;;;;;4.37;3.67;;;5.00;99.90;;;;;;5055290;28;20550;-65
2024/02/26 00:57:19;;;;;;;3.60;3.10;;;4.90;99.90;;;;;;5055295;28;20784;-66
2024/02/26 00:59:48;;;;;;;5.63;3.53;;;4.90;99.90;;;;;;5055153;28;20458;-66
2024/02/26 01:02:15;;;;;;;4.83;3.33;;;4.80;99.90;;;;;;5055332;28;20501;-65
2024/02/26 01:04:44;;;;;;;5.03;3.63;;;4.70;99.90;;;;;;5056267;28;20494;-65
2024/02/26 01:07:11;;;;;;;6.83;3.60;;;4.70;99.90;;;;;;5055161;28;20460;-65
2024/02/26 01:09:39;;;;;;;4.10;3.60;;;4.70;1.00;;;;;;5055338;28;20483;-65
2024/02/26 01:12:06;;;;;;;6.60;3.73;;;4.60;1.00;;;;;;5055902;28;20952;-65
2024/02/26 01:14:35;;;;;;;4.30;3.70;;;4.60;1.00;;;;;;5055694;28;20454;-66
2024/02/26 01:17:02;;;;;;;4.97;3.23;;;4.60;1.00;;;;;;5055500;28;20490;-65
2024/02/26 01:19:30;;;;;;;5.17;3.40;;;4.60;1.00;;;;;;5054921;28;20471;-66
2024/02/26 01:21:58;;;;;;;5.00;3.47;;;4.60;1.00;;;;;;5055333;28;20939;-65
2024/02/26 01:24:25;;;;;;;4.70;3.50;;;4.50;1.00;;;;;;5055360;28;20490;-66
2024/02/26 01:26:53;;;;;;;6.40;3.33;;;4.50;1.00;;;;;;5055165;28;20485;-66
2024/02/26 01:29:20;;;;;;;4.37;3.47;;;4.50;1.00;;;;;;5054782;28;20458;-66
2024/02/26 01:31:47;;;;;;;5.03;3.73;;;4.50;1.00;;;;;;5055014;28;20454;-65
2024/02/26 01:34:15;;;;;;;4.10;3.20;;;4.50;28.80;;;;;;5055224;28;20466;-65
2024/02/26 01:36:42;;;;;;;4.70;3.50;;;4.50;99.90;;;;;;5055336;28;20497;-65
2024/02/26 01:39:12;;;;;;;4.27;3.43;;;4.50;22.10;;;;;;5054782;28;20819;-65
2024/02/26 01:41:40;;;;;;;5.23;3.40;;;4.50;99.90;;;;;;5054788;28;20466;-65
2024/02/26 01:44:08;;;;;;;4.97;3.77;;;4.50;99.90;;;;;;5054802;28;20462;-65
2024/02/26 01:46:37;;;;;;;7.90;4.00;;;4.50;62.00;;;;;;5055076;28;20455;-66
2024/02/26 01:49:04;;;;;;;4.80;3.60;;;4.50;1.00;;;;;;5054765;28;20469;-65
2024/02/26 01:51:33;;;;;;;4.57;3.60;;;4.50;85.10;;;;;;5054720;28;20463;-65
2024/02/26 01:54:03;;;;;;;5.70;3.63;;;4.50;90.40;;;;;;5054323;28;20486;-65
2024/02/26 01:56:32;;;;;;;6.00;3.40;;;4.50;65.60;;;;;;5054975;28;20563;-65
2024/02/26 01:59:00;;;;;;;5.33;3.63;;;4.50;94.00;;;;;;5054619;28;20462;-65
2024/02/26 02:01:29;;;;;;;6.60;3.93;;;4.50;45.70;;;;;;5054858;28;20481;-65
2024/02/26 02:03:59;;;;;;;4.40;3.70;;;4.50;1.00;;;;;;5055108;28;20550;-65
2024/02/26 02:06:27;;;;;;;3.87;3.27;;;4.50;99.90;;;;;;5055022;28;20459;-65
2024/02/26 02:08:55;;;;;;;7.40;3.50;;;4.50;47.20;;;;;;5055103;28;20466;-65
2024/02/26 02:11:23;;;;;;;5.20;3.27;;;4.50;99.90;;;;;;5054100;28;20524;-65
2024/02/26 02:13:51;;;;;;;4.87;3.47;;;4.50;97.50;;;;;;5054512;28;20462;-65
2024/02/26 02:16:19;;;;;;;4.43;3.40;;;4.60;1.00;;;;;;5054512;28;20483;-65
2024/02/26 02:18:46;;;;;;;6.70;3.73;;;4.50;1.00;;;;;;5054636;28;20804;-65
2024/02/26 02:21:14;;;;;;;4.33;3.20;;;4.50;99.90;;;;;;5054265;28;20532;-66
2024/02/26 02:23:46;;;;;;;6.30;3.80;;;4.50;1.00;;;;;;5054252;28;20987;-66
2024/02/26 02:26:14;;;;;;;4.80;3.30;;;4.60;99.90;;;;;;5054324;28;20458;-66
2024/02/26 02:28:41;;;;;;;5.97;4.07;;;4.50;99.90;;;;;;5053722;28;20513;-66
2024/02/26 02:31:09;;;;;;;5.97;3.97;;;4.50;99.90;;;;;;5053625;28;20458;-66
2024/02/26 02:33:37;;;;;;;5.90;3.43;;;4.60;99.90;;;;;;5054107;28;20503;-63
2024/02/26 02:36:09;;;;;;;3.83;3.30;;;4.50;99.90;;;;;;5054556;28;20490;-62
2024/02/26 02:38:37;;;;;;;4.60;3.20;;;4.60;99.90;;;;;;5054759;28;20535;-62
2024/02/26 02:41:05;;;;;;;4.97;4.23;;;4.60;1.00;;;;;;5054482;28;20496;-62
2024/02/26 02:43:32;;;;;;;3.93;3.33;;;4.60;1.00;;;;;;5053593;28;20458;-62
2024/02/26 02:46:02;;;;;;;4.67;3.67;;;4.50;91.80;;;;;;5054374;28;20533;-62
2024/02/26 02:48:29;;;;;;;5.97;3.33;;;4.50;99.90;;;;;;5054074;28;20475;-63
2024/02/26 02:50:57;;;;;;;4.73;3.00;;;4.50;99.90;;;;;;5054119;28;20504;-63
2024/02/26 02:53:24;;;;;;;3.83;3.03;;;4.50;99.90;;;;;;5053298;28;20458;-63
2024/02/26 02:55:53;;;;;;;4.13;3.70;;;4.50;1.00;;;;;;5053827;28;20760;-63
2024/02/26 02:58:20;;;;;;;4.53;3.17;;;4.40;99.90;;;;;;5053827;28;20561;-63
2024/02/26 03:00:47;;;;;;;5.80;4.17;;;4.30;1.00;;;;;;5053845;28;20938;-63
2024/02/26 03:03:15;;;;;;;5.13;3.43;;;4.30;1.00;;;;;;5053699;28;20498;-63
2024/02/26 03:05:42;;;;;;;4.40;3.00;;;4.30;99.90;;;;;;5053658;28;20490;-63
2024/02/26 03:08:09;;;;;;;4.70;3.17;;;4.30;99.90;;;;;;5053784;28;20531;-64
2024/02/26 03:10:37;;;;;;;4.40;3.20;;;4.30;99.90;;;;;;5054063;28;20545;-64
2024/02/26 03:13:06;;;;;;;5.73;3.33;;;4.30;1.00;;;;;;5054168;28;20553;-64
2024/02/26 03:15:33;;;;;;;3.73;3.13;;;4.30;1.00;;;;;;5053425;28;20467;-65
2024/02/26 03:18:01;;;;;;;4.50;3.20;;;4.30;1.00;;;;;;5053807;28;20546;-64
2024/02/26 03:20:28;;;;;;;5.57;3.60;;;4.30;57.40;;;;;;5053846;28;20521;-65
2024/02/26 03:22:55;;;;;;;4.30;3.20;;;4.30;1.00;;;;;;5055560;28;20549;-64
2024/02/26 03:25:22;;;;;;;6.00;4.03;;;4.20;22.50;;;;;;5056794;28;20553;-64
2024/02/26 03:27:50;;;;;;;4.07;3.37;;;4.20;82.80;;;;;;5057059;28;20879;-65
2024/02/26 03:30:18;;;;;;;6.60;3.10;;;4.20;99.90;;;;;;5056835;28;20466;-64
2024/02/26 03:32:46;;;;;;;5.07;3.90;;;4.20;99.90;;;;;;5056846;28;20500;-64
2024/02/26 03:35:14;;;;;;;5.13;3.60;;;4.20;1.00;;;;;;5056349;28;20505;-64
2024/02/26 03:37:41;;;;;;;4.60;3.70;;;4.20;1.00;;;;;;5056685;28;21044;-65
2024/02/26 03:40:09;;;;;;;4.67;3.60;;;4.10;1.00;;;;;;5056597;28;20489;-64
2024/02/26 03:42:36;;;;;;;5.00;2.97;;;4.10;1.00;;;;;;5057157;28;20911;-65
2024/02/26 03:45:04;;;;;;;5.57;3.00;;;4.00;1.00;;;;;;5056827;28;20946;-64
2024/02/26 03:47:32;;;;;;;3.70;3.17;;;4.10;51.60;;;;;;5056671;28;20903;-63
2024/02/26 03:50:00;;;;;;;4.20;3.20;;;4.10;72.60;;;;;;5056740;28;20511;-64
2024/02/26 03:52:27;;;;;;;3.77;3.17;;;4.00;32.50;;;;;;5056656;28;20494;-65
2024/02/26 03:54:54;;;;;;;4.13;2.93;;;4.10;99.90;;;;;;5056173;28;20482;-65
2024/02/26 03:57:22;;;;;;;4.80;3.50;;;4.10;99.90;;;;;;5055745;28;20602;-64
2024/02/26 03:59:49;;;;;;;4.40;3.40;;;4.10;99.90;;;;;;5055305;28;20505;-64
2024/02/26 04:02:19;;;;;;;3.50;3.00;;;4.00;99.90;;;;;;5055499;28;20482;-65
2024/02/26 04:04:47;;;;;;;3.83;3.27;;;4.00;99.90;;;;;;5055685;28;20502;-64
2024/02/26 04:07:15;;;;;;;4.03;3.40;;;4.10;1.00;;;;;;5055556;28;20539;-64
2024/02/26 04:09:43;;;;;;;5.63;3.30;;;4.00;1.00;;;;;;5055429;28;20469;-64
2024/02/26 04:12:10;;;;;;;4.87;3.50;;;4.00;99.90;;;;;;5055935;28;20467;-64
2024/02/26 04:14:38;;;;;;;5.00;3.00;;;4.00;99.90;;;;;;5055122;28;20466;-64
2024/02/26 04:17:05;;;;;;;6.90;3.90;;;4.00;99.90;;;;;;5054720;28;20486;-64
2024/02/26 04:19:32;;;;;;;4.53;3.40;;;4.00;99.90;;;;;;5054224;28;20535;-65
2024/02/26 04:22:01;;;;;;;4.20;3.40;;;4.00;99.90;;;;;;5054353;28;20923;-64
2024/02/26 04:24:28;;;;;;;6.30;3.07;;;4.00;99.90;;;;;;5054500;28;20531;-64
2024/02/26 04:26:55;;;;;;;4.90;3.50;;;4.00;1.00;;;;;;5053788;28;20455;-64
2024/02/26 04:29:23;;;;;;;4.73;3.60;;;4.00;1.00;;;;;;5055165;28;20558;-64
2024/02/26 04:31:50;;;;;;;5.70;3.70;;;4.00;1.00;;;;;;5055804;28;20471;-63
2024/02/26 04:34:17;;;;;;;4.03;3.40;;;4.00;1.00;;;;;;5055625;28;20554;-63
2024/02/26 04:36:44;;;;;;;5.40;3.33;;;4.00;99.90;;;;;;5055339;28;20490;-64
2024/02/26 04:39:13;;;;;;;4.23;3.57;;;4.00;99.90;;;;;;5055398;28;20549;-63
2024/02/26 04:41:40;;;;;;;5.90;3.80;;;4.10;99.90;;;;;;5055977;28;20507;-64
2024/02/26 04:44:08;;;;;;;5.33;3.47;;;4.00;99.90;;;;;;5055658;28;20458;-63
2024/02/26 04:46:35;;;;;;;5.07;3.40;;;4.10;1.00;;;;;;5055860;28;20822;-64
2024/02/26 04:49:02;;;;;;;4.80;3.97;;;4.10;1.00;;;;;;5055311;28;20464;-64
2024/02/26 04:51:29;;;;;;;5.60;3.20;;;4.00;1.00;;;;;;5055294;28;20497;-63
2024/02/26 04:53:57;;;;;;;4.83;3.70;;;4.00;1.00;;;;;;5055196;28;20610;-64
2024/02/26 04:56:26;;;;;;;4.53;3.37;;;4.00;1.00;;;;;;5055331;28;20502;-64
2024/02/26 04:58:53;;;;;;;5.43;3.10;;;4.00;1.00;;;;;;5055940;28;20556;-64
2024/02/26 05:01:21;;;;;;;6.10;3.70;;;4.00;1.00;;;;;;5055246;28;20809;-64
2024/02/26 05:03:48;;;;;;;4.30;3.33;;;4.00;1.00;;;;;;5055470;28;20503;-64
2024/02/26 05:06:16;;;;;;;4.27;3.87;;;4.00;1.00;;;;;;5055116;28;20463;-65
2024/02/26 05:08:43;;;;;;;6.87;3.20;;;4.10;1.00;;;;;;5055484;28;20497;-64
2024/02/26 05:11:11;;;;;;;4.90;3.60;;;4.00;1.00;;;;;;5054882;28;20462;-64
2024/02/26 05:13:40;;;;;;;4.00;3.47;;;4.00;1.00;;;;;;5055196;28;20588;-64
2024/02/26 05:16:07;;;;;;;5.10;4.10;;;4.00;3.30;;;;;;5055344;28;20505;-63
2024/02/26 05:18:34;;;;;;;4.40;3.73;;;4.00;52.80;;;;;;5055195;28;20585;-64
2024/02/26 05:21:03;;;;;;;5.67;4.10;;;4.00;90.50;;;;;;5055516;28;20469;-64
2024/02/26 05:23:30;;;;;;;4.63;3.60;;;4.00;99.90;;;;;;5054822;28;20538;-63
2024/02/26 05:25:57;;;;;;;4.80;4.30;;;4.00;99.90;;;;;;5054873;28;20490;-64
2024/02/26 05:28:24;;;;;;;6.40;3.73;;;4.00;99.90;;;;;;5055363;28;20926;-63
2024/02/26 05:30:53;;;;;;;5.33;3.97;;;3.90;99.90;;;;;;5055167;28;20458;-63
2024/02/26 05:33:21;;;;;;;4.40;3.70;;;3.90;99.90;;;;;;5054774;28;20462;-64
2024/02/26 05:35:49;;;;;;;6.17;4.17;;;4.00;99.90;;;;;;5054967;28;20879;-63
2024/02/26 05:38:16;;;;;;;4.80;4.10;;;3.90;99.90;;;;;;5054473;28;20500;-63
2024/02/26 05:40:43;;;;;;;5.20;4.37;;;3.90;99.90;;;;;;5054938;28;20951;-63
2024/02/26 05:43:10;;;;;;;5.47;4.60;;;3.90;99.90;;;;;;5054558;28;20493;-64
2024/02/26 05:45:37;;;;;;;4.90;4.20;;;3.90;99.90;;;;;;5053869;28;20497;-63
2024/02/26 05:48:07;;;;;;;5.53;4.50;;;3.90;99.90;;;;;;5054848;28;20501;-64
2024/02/26 05:50:34;;;;;;;7.23;4.53;;;3.90;99.90;;;;;;5054407;28;20466;-63
2024/02/26 05:53:01;;;;;;;5.80;4.13;;;3.90;99.90;;;;;;5054693;28;20512;-64
2024/02/26 05:55:29;;;;;;;5.70;3.97;;;3.90;99.90;;;;;;5053544;28;20514;-64
2024/02/26 05:57:56;;;;;;;5.50;4.53;;;3.90;99.90;;;;;;5053952;28;21015;-63
2024/02/26 06:00:23;;;;;;;7.23;5.33;;;3.90;99.90;;;;;;5053738;28;20474;-64
2024/02/26 06:02:50;;;;;;;5.90;4.70;;;3.90;99.90;;;;;;5053186;28;21131;-63
2024/02/26 06:05:19;;;;;;;7.27;5.40;;;3.90;99.90;;;;;;5054508;28;20486;-64
2024/02/26 06:07:46;;;;;;;5.80;4.60;;;3.90;99.90;;;;;;5051664;28;20459;-64
2024/02/26 06:10:14;;;;;;;5.37;4.50;;;3.90;99.90;;;;;;5053087;28;20891;-63
2024/02/26 06:12:41;;;;;;;5.07;4.57;;;3.90;99.90;;;;;;5053301;28;20913;-64
2024/02/26 06:15:09;;;;;;;6.83;4.37;;;3.90;99.90;;;;;;5053806;28;20462;-64
2024/02/26 06:17:37;;;;;;;5.77;4.23;;;3.90;99.90;;;;;;5053423;28;20533;-64
2024/02/26 06:20:06;;;;;;;6.37;4.27;;;3.90;99.90;;;;;;5053387;28;20462;-63
2024/02/26 06:22:35;;;;;;;5.63;4.73;;;3.90;99.90;;;;;;5052523;28;20513;-64
2024/02/26 06:25:02;;;;;;;7.43;5.20;;;4.00;99.90;;;;;;5052845;28;20462;-64
2024/02/26 06:27:29;;;;;;;6.53;5.43;;;4.00;99.90;;;;;;5052715;28;20462;-64
2024/02/26 06:29:57;;;;;;;6.63;5.00;;;4.00;99.90;;;;;;5052679;28;20550;-63
2024/02/26 06:32:24;;;;;;;6.00;4.87;;;4.00;99.90;;;;;;5052176;28;20545;-63
2024/02/26 06:34:51;;;;;;;5.47;4.30;;;4.00;99.90;;;;;;5052503;28;20458;-63
2024/02/26 06:37:18;;;;;;;8.00;4.87;;;4.00;99.90;;;;;;5052394;28;20490;-63
2024/02/26 06:39:47;;;;;;;5.27;4.67;;;4.00;99.90;;;;;;5049614;28;20907;-68
2024/02/26 06:42:14;;;;;;;6.00;5.00;;;4.00;99.90;;;;;;5041390;28;20531;-68
2024/02/26 06:44:42;;;;;;;6.13;5.10;;;4.10;99.90;;;;;;5054100;28;20458;-68
2024/02/26 06:47:09;;;;;;;5.40;4.90;;;4.10;99.90;;;;;;5051706;28;20963;-68
2024/02/26 06:49:36;;;;;;;6.90;5.17;;;4.10;99.90;;;;;;5051716;28;20486;-68
2024/02/26 06:52:04;;;;;;;6.20;5.43;;;4.10;99.90;;;;;;5051174;28;20485;-68
2024/02/26 06:54:31;;;;;;;6.33;4.80;;;4.10;99.90;;;;;;5051393;28;20489;-68
2024/02/26 06:57:00;;;;;;;5.73;5.17;;;4.10;99.90;;;;;;5053364;28;20486;-68
2024/02/26 06:59:27;;;;;;;5.83;5.23;;;4.10;99.90;;;;;;5055065;28;20906;-67
2024/02/26 07:01:56;;;;;;;7.50;4.97;;;4.10;99.90;;;;;;5055956;28;20521;-68
2024/02/26 07:04:23;;;;;;;6.47;5.30;;;4.10;99.90;;;;;;5055478;28;20491;-68
2024/02/26 07:06:50;;;;;;;5.33;4.60;;;4.20;99.90;;;;;;5054990;28;20466;-68
2024/02/26 07:09:18;;;;;;;6.70;5.60;;;4.20;99.90;;;;;;5055159;28;20454;-68
2024/02/26 07:11:45;;;;;;;7.20;5.40;;;4.20;99.90;;;;;;5056622;28;20462;-68
2024/02/26 07:14:14;;;;;;;10.83;5.40;;;4.20;99.90;;;;;;5056461;28;20493;-67
2024/02/26 07:16:41;;;;;;;8.53;5.40;;;4.20;99.90;;;;;;5056689;28;20597;-68
2024/02/26 07:19:08;;;;;;;5.90;4.83;;;4.20;99.90;;;;;;5057218;28;20934;-68
2024/02/26 07:21:36;;;;;;;7.00;4.80;;;4.20;99.90;;;;;;5057403;28;20485;-67
2024/02/26 07:24:03;;;;;;;6.20;4.97;;;4.20;99.90;;;;;;5057908;28;20962;-68
2024/02/26 07:26:30;;;;;;;9.23;5.17;;;4.20;99.90;;;;;;5056475;28;20937;-67
2024/02/26 07:28:58;;;;;;;6.20;5.60;;;4.20;99.90;;;;;;5056288;28;20914;-68
2024/02/26 07:31:27;;;;;;;5.70;5.00;;;4.20;99.90;;;;;;5055632;28;20465;-67
2024/02/26 07:33:54;;;;;;;7.13;5.50;;;4.20;99.90;;;;;;5055099;28;20490;-68
2024/02/26 07:36:21;;;;;;;7.00;5.33;;;4.20;99.90;;;;;;5055166;28;20510;-68
2024/02/26 07:38:48;;;;;;;6.80;5.33;;;4.20;99.90;;;;;;5054709;28;20465;-68
2024/02/26 07:41:16;;;;;;;9.17;5.17;;;4.30;99.90;;;;;;5055639;28;20808;-68
2024/02/26 07:43:43;;;;;;;5.50;5.00;;;4.20;99.90;;;;;;5055326;28;20561;-68
2024/02/26 07:46:13;;;;;;;6.00;5.10;;;4.30;99.90;;;;;;5056179;28;20505;-68
2024/02/26 07:48:42;;;;;;;6.10;4.80;;;4.30;99.90;;;;;;5056250;28;20464;-68
2024/02/26 07:51:09;;;;;;;8.60;5.00;;;4.40;99.90;;;;;;5056316;28;20503;-67
2024/02/26 07:53:36;;;;;;;6.80;5.93;;;4.40;99.90;;;;;;5056474;28;20488;-67
2024/02/26 07:58:49;;;;;;;5.60;5.00;;;4.40;99.90;;;;;;5056195;28;20497;-68
2024/02/26 08:01:16;;;;;;;9.00;5.13;;;4.40;99.90;;;;;;5057007;28;20903;-67
2024/02/26 08:03:45;;;;;;;6.50;4.97;;;4.40;99.90;;;;;;5057119;28;20493;-69
2024/02/26 08:06:12;;;;;;;8.90;5.33;;;4.40;99.90;;;;;;5056495;28;20441;-68
2024/02/26 08:08:40;;;;;;;5.83;5.03;;;4.40;99.90;;;;;;5056409;28;20455;-68
2024/02/26 08:11:08;;;;;;;8.60;5.63;;;4.40;99.90;;;;;;5057018;28;20498;-67
2024/02/26 08:13:36;;;;;;;6.10;5.50;;;4.40;99.90;;;;;;5056736;28;20940;-67
2024/02/26 08:16:03;;;;;;;7.37;5.50;;;4.40;99.90;;;;;;5057506;28;20463;-69
2024/02/26 08:18:31;;;;;;;5.03;4.53;;;4.50;99.90;;;;;;5056941;28;20494;-67
2024/02/26 08:20:59;;;;;;;8.20;5.33;;;4.40;99.90;;;;;;5057201;28;20466;-67
2024/02/26 08:23:27;;;;;;;5.80;5.10;;;4.50;99.90;;;;;;5056982;28;20458;-68
2024/02/26 08:25:54;;;;;;;6.00;5.40;;;4.60;99.90;;;;;;5056837;28;20462;-67
2024/02/26 08:28:21;;;;;;;8.33;5.33;;;4.60;99.90;;;;;;5056672;28;20802;-67
2024/02/26 08:30:49;;;;;;;8.40;5.80;;;4.60;99.90;;;;;;5057252;28;20499;-67
2024/02/26 08:33:16;;;;;;;6.20;5.17;;;4.60;99.90;;;;;;5057200;28;20458;-67
2024/02/26 08:35:44;;;;;;;6.10;5.50;;;4.60;99.90;;;;;;5057480;28;20462;-67
2024/02/26 08:38:13;;;;;;;6.27;5.50;;;4.70;99.90;;;;;;5057045;28;20493;-67
2024/02/26 08:40:40;;;;;;;6.00;5.13;;;4.60;99.90;;;;;;5056477;28;20459;-68
2024/02/26 08:43:08;;;;;;;7.20;5.67;;;4.60;99.90;;;;;;5056024;28;20553;-67
2024/02/26 08:45:35;;;;;;;7.10;4.83;;;4.70;99.90;;;;;;5055647;28;20724;-67
2024/02/26 08:48:03;;;;;;;6.60;4.50;;;4.80;99.90;;;;;;5056362;28;20463;-67
2024/02/26 08:50:30;;;;;;;6.37;5.67;;;4.80;99.90;;;;;;5055768;28;20967;-67
2024/02/26 08:52:58;;;;;;;7.40;5.00;;;4.80;99.90;;;;;;5055712;28;20458;-67
2024/02/26 08:55:28;;;;;;;6.00;4.97;;;4.80;99.90;;;;;;5055379;28;20922;-67
2024/02/26 08:57:55;;;;;;;6.10;5.20;;;4.80;99.90;;;;;;5055685;28;20489;-67
2024/02/26 09:00:23;;;;;;;8.50;5.53;;;4.80;99.90;;;;;;5054762;28;20462;-67
2024/02/26 09:02:50;;;;;;;7.40;4.70;;;4.80;99.90;;;;;;5055358;28;20471;-68
2024/02/26 09:05:17;;;;;;;6.10;5.13;;;4.90;99.90;;;;;;5055407;28;20561;-67
2024/02/26 09:07:46;;;;;;;8.70;4.93;;;4.90;99.90;;;;;;5055397;28;20458;-67
2024/02/26 09:10:14;;;;;;;6.83;4.70;;;5.00;99.90;;;;;;5054551;28;20557;-67
2024/02/26 09:12:43;;;;;;;6.10;5.20;;;5.00;99.90;;;;;;5053424;28;20455;-66
2024/02/26 09:15:11;;;;;;;5.47;4.80;;;5.00;99.90;;;;;;5053476;28;20459;-66
2024/02/26 09:17:40;;;;;;;7.40;5.00;;;5.00;99.90;;;;;;5054187;28;20561;-66
2024/02/26 09:20:09;;;;;;;7.07;5.53;;;5.10;99.90;;;;;;5052482;28;20493;-67
2024/02/26 09:22:37;;;;;;;9.87;5.43;;;5.20;99.90;;;;;;5054287;28;20506;-66
2024/02/26 09:25:06;;;;;;;6.43;5.20;;;5.20;99.90;;;;;;5054726;28;20462;-65
2024/02/26 09:27:33;;;;;;;6.57;5.60;;;5.10;99.90;;;;;;5055522;28;20514;-66
2024/02/26 09:30:02;;;;;;;5.77;4.97;;;5.20;99.90;;;;;;5055135;28;20455;-66
2024/02/26 09:32:30;;;;;;;6.30;4.87;;;5.20;99.90;;;;;;5054937;28;20506;-66
2024/02/26 09:34:57;;;;;;;7.33;5.47;;;5.30;99.90;;;;;;5054818;28;20458;-66
2024/02/26 09:37:24;;;;;;;5.80;4.90;;;5.30;99.90;;;;;;5055292;28;20483;-66
2024/02/26 09:39:52;;;;;;;8.47;5.37;;;5.40;99.90;;;;;;5055018;28;20521;-66
2024/02/26 09:42:20;;;;;;;5.77;5.10;;;5.30;99.90;;;;;;5054705;28;20462;-66
2024/02/26 09:44:50;;;;;;;7.60;5.80;;;5.30;99.90;;;;;;5054475;27;20461;-65
2024/02/26 09:47:20;;;;;;;5.80;5.20;;;5.30;99.90;;;;;;5055432;28;20460;-66
2024/02/26 09:49:49;;;;;;;5.80;5.20;;;5.30;99.90;;;;;;5054806;28;20459;-65
2024/02/26 09:52:17;;;;;;;5.43;4.60;;;5.40;99.90;;;;;;5054492;27;20462;-66
2024/02/26 09:54:48;;;;;;;6.77;5.10;;;5.40;99.90;;;;;;5054392;27;20522;-65
2024/02/26 09:57:17;;;;;;;6.60;4.80;;;5.50;99.90;;;;;;5054841;27;20459;-66
2024/02/26 09:59:45;;;;;;;7.30;5.33;;;5.60;99.90;;;;;;5054624;28;20495;-66
2024/02/26 10:02:14;;;;;;;5.93;5.33;;;5.70;99.90;;;;;;5054803;27;20813;-66
2024/02/26 10:04:43;;;;;;;6.43;5.00;;;5.80;99.90;;;;;;5054609;27;20466;-66
2024/02/26 10:07:13;;;;;;;5.50;4.70;;;5.70;99.90;;;;;;5055276;27;21000;-66
2024/02/26 10:09:41;;;;;;;10.53;5.77;;;5.60;99.90;;;;;;5123091;27;20503;-66
2024/02/26 10:12:10;;;;;;;6.70;5.13;;;5.60;99.90;;;;;;5054134;27;20461;-66
2024/02/26 10:14:38;;;;;;;6.10;4.83;;;5.70;99.90;;;;;;5054193;28;20441;-66
2024/02/26 10:17:08;;;;;;;7.00;5.13;;;5.60;99.90;;;;;;5054464;28;20490;-66
2024/02/26 10:19:35;;;;;;;7.40;5.20;;;5.60;99.90;;;;;;5054241;28;20483;-66
2024/02/26 10:22:04;;;;;;;5.73;5.07;;;5.60;99.90;;;;;;5054633;27;20717;-66
2024/02/26 10:24:34;;;;;;;6.13;5.53;;;5.60;99.90;;;;;;5054429;27;20466;-66
2024/02/26 10:27:01;;;;;;;5.77;5.17;;;5.60;99.90;;;;;;5053983;28;20466;-67
2024/02/26 10:29:29;;;;;;;6.40;5.00;;;5.70;99.90;;;;;;5054740;27;20487;-67
2024/02/26 10:31:57;;;;;;;6.70;5.10;;;5.50;99.90;;;;;;5053923;27;20459;-66
2024/02/26 10:34:25;;;;;;;6.00;4.87;;;5.60;99.90;;;;;;5054253;27;20739;-66
2024/02/26 10:36:52;;;;;;;7.50;5.50;;;5.60;99.90;;;;;;5053912;28;20466;-66
2024/02/26 10:39:21;;;;;;;6.20;5.60;;;5.70;99.90;;;;;;5054133;27;20559;-66
2024/02/26 10:41:49;;;;;;;5.83;5.13;;;5.70;99.90;;;;;;5054688;27;20886;-66
2024/02/26 10:44:16;;;;;;;7.10;5.60;;;5.70;99.90;;;;;;5053847;27;20458;-66
2024/02/26 10:46:44;;;;;;;6.57;5.87;;;5.70;99.90;;;;;;5053709;27;20463;-67
2024/02/26 10:49:17;;;;;;;6.83;6.23;;;5.70;99.90;;;;;;5054295;27;20507;-66
2024/02/26 10:51:48;;;;;;;11.93;6.00;;;5.60;99.90;;;;;;5052589;28;20577;-67
2024/02/26 10:54:20;;;;;;;5.80;5.20;;;5.60;99.90;;;;;;5053486;27;20945;-67
2024/02/26 10:56:51;;;;;;;9.43;6.13;;;5.70;99.90;;;;;;5054029;27;20495;-67
2024/02/26 10:59:20;;;;;;;6.60;5.07;;;5.70;99.90;;;;;;5053708;28;20538;-67
2024/02/26 11:01:49;;;;;;;6.13;5.23;;;5.80;99.90;;;;;;5053761;28;20462;-67
2024/02/26 11:04:18;;;;;;;7.53;6.27;;;5.70;99.90;;;;;;5053771;27;20458;-67
2024/02/26 11:06:46;;;;;;;6.53;5.93;;;5.80;99.90;;;;;;5053934;28;20466;-67
2024/02/26 11:09:15;;;;;;;7.60;5.67;;;6.00;99.90;;;;;;5053619;28;20494;-67
2024/02/26 11:11:43;;;;;;;7.90;5.67;;;5.90;99.90;;;;;;5044548;27;20478;-67
2024/02/26 11:14:14;;;;;;;7.63;5.73;;;5.90;99.90;;;;;;5033545;28;20488;-67
2024/02/26 11:16:42;;;;;;;7.30;5.93;;;6.00;99.90;;;;;;5033400;28;20519;-67
2024/02/26 11:19:11;;;;;;;8.83;6.17;;;6.00;99.90;;;;;;5033676;28;20523;-67
2024/02/26 11:21:47;;;;;;;7.23;6.43;;;6.10;99.90;;;;;;5033804;28;20464;-66
2024/02/26 11:24:18;;;;;;;7.90;5.77;;;6.10;99.90;;;;;;5033358;28;20463;-66
2024/02/26 11:26:55;;;;;;;7.40;6.00;;;6.30;99.90;;;;;;5033649;28;20467;-66
2024/02/26 11:29:26;;;;;;;9.27;6.43;;;6.30;99.90;;;;;;5033860;28;20888;-66
2024/02/26 11:31:55;;;;;;;8.73;6.07;;;6.30;99.90;;;;;;5015722;28;20558;-66
2024/02/26 11:34:23;;;;;;;6.87;5.87;;;6.30;99.90;;;;;;5033428;28;20459;-66
2024/02/26 11:36:51;;;;;;;8.10;6.37;;;6.40;99.90;;;;;;5033506;28;20471;-66
2024/02/26 11:39:18;;;;;;;7.50;6.33;;;6.50;99.90;;;;;;5033330;28;20495;-65
2024/02/26 11:41:46;;;;;;;7.27;6.50;;;6.70;99.90;;;;;;5033801;28;20463;-65
2024/02/26 11:44:14;;;;;;;7.17;6.03;;;6.90;99.90;;;;;;5035271;28;20466;-67
2024/02/26 11:46:44;;;;;;;8.00;6.17;;;6.90;99.90;;;;;;5036398;28;20838;-66
2024/02/26 11:49:34;;;;;;;8.43;6.80;;;6.90;99.90;;;;;;5035468;28;20455;-66
2024/02/26 11:52:03;;;;;;;7.57;6.83;;;6.90;99.90;;;;;;5035786;28;20468;-67
2024/02/26 11:54:55;;;;;;;10.60;7.47;;;6.80;99.90;;;;;;5035170;28;20494;-66
2024/02/26 11:57:27;;;;;;;10.10;7.60;;;6.80;99.90;;;;;;5039816;28;20471;-67
2024/02/26 11:59:55;;;;;;;8.17;7.33;;;6.80;99.90;;;;;;5035326;28;20498;-66
2024/02/26 12:02:45;;;;;;;8.27;6.40;;;6.80;99.90;;;;;;5035236;28;20466;-66
2024/02/26 12:05:15;;;;;;;8.10;6.80;;;6.90;99.90;;;;;;5036367;28;20467;-66
2024/02/26 12:07:46;;;;;;;8.33;6.93;;;7.00;99.90;;;;;;5036355;28;20455;-66
2024/02/26 12:10:28;;;;;;;10.30;7.10;;;7.10;99.90;;;;;;5035964;28;20455;-66
2024/02/26 12:13:00;;;;;;;9.83;7.87;;;7.00;99.90;;;;;;5036149;28;20955;-65
2024/02/26 12:15:33;;;;;;;10.33;8.67;;;7.00;99.90;;;;;;5034869;28;20767;-65
2024/02/26 12:18:05;;;;;;;9.03;7.50;;;7.10;99.90;;;;;;5034706;28;20463;-65
2024/02/26 12:20:33;;;;;;;13.57;8.60;;;7.10;99.90;;;;;;5034399;28;20998;-66
2024/02/26 12:23:00;;;;;;;10.70;8.40;;;7.00;1.00;;;;;;5034349;28;20460;-64
2024/02/26 12:25:33;;;;;;;11.50;8.60;;;7.00;1.00;;;;;;5035094;28;20459;-65
2024/02/26 12:28:01;;;;;;;11.87;9.17;;;7.10;1.00;;;;;;5035570;28;20804;-65
2024/02/26 12:30:30;;;;;;;10.10;8.80;;;7.00;1.00;;;;;;5035293;28;20456;-65
2024/02/26 12:33:00;;;;;;;12.27;9.27;;;6.90;1.00;;;;;;5035778;28;20464;-65
2024/02/26 12:35:31;;;;;;;13.00;10.17;;;6.90;1.00;;;;;;5035937;28;20459;-65
2024/02/26 12:38:00;;;;;;;14.60;10.43;;;6.90;36.50;;;;;;5036060;28;20474;-65
2024/02/26 12:40:28;;;;;;;10.97;9.63;;;7.00;99.90;;;;;;5042116;28;20490;-65
2024/02/26 12:42:56;;;;;;;12.70;10.33;;;7.10;99.90;;;;;;5055549;28;20799;-65
2024/02/26 12:45:24;;;;;;;14.13;10.83;;;7.20;99.90;;;;;;5076727;27;20887;-65
2024/02/26 12:47:53;;;;;;;14.43;10.40;;;7.20;99.90;;;;;;5096063;27;20765;-65
2024/02/26 12:50:20;;;;;;;12.83;10.00;;;7.30;99.90;;;;;;5089853;27;20554;-64
2024/02/26 12:52:52;;;;;;;12.93;10.20;;;7.30;1.00;;;;;;5079186;27;20468;-65
2024/02/26 12:55:21;;;;;;;11.67;9.47;;;7.30;1.00;;;;;;5159007;27;20486;-65
2024/02/26 12:57:50;;;;;;;15.93;10.57;;;7.40;99.90;;;;;;5157350;27;20458;-65
2024/02/26 13:00:22;;;;;;;12.73;9.63;;;7.40;99.90;;;;;;5159110;27;20541;-65
2024/02/26 13:02:51;;;;;;;10.37;9.27;;;7.40;37.30;;;;;;5158105;27;20462;-66
2024/02/26 13:05:22;;;;;;;10.53;8.90;;;7.50;25.70;;;;;;5157480;27;20450;-66